San Ignacio Velasco, Bolivia
Current Conditions -  °F | °C
As of 7:00 AM on Wednesday 26 Nov 2014 (Local Time) from SLVR Reporting Station
Thunderstorm Thunderstorm  
Wind Chill: 70°   Ceiling: 1000
Heat Index: 70°   Visibility: 2.5mi
Dew Point: 70°   Wind: 10mph
Humidity: 100%   Direction: 290°WNW
Pressure: 29.83"   Gusts: NA
Location:  16.38°S, 60.95°W
Report Text: SLVR 261100Z 29009KT 4000 -TSRA BKN010 BKN017 FEW030CB OVC070 21/21 Q1010
Loading
Personal Weather Stations






























Interactive Weather Map New forecast layout! Learn more

10-Day Weather Forecast

Advertisements
Track Severe Weather on mobile